sensor_id;sensor_type;location;lat;lon;timestamp;pressure;altitude;pressure_sealevel;temperature;humidity
3096;BME280;1558;42.700;23.360;2023-03-01T00:01:45;95842.97;;;6.10;100.00
3096;BME280;1558;42.700;23.360;2023-03-01T00:04:14;95821.59;;;6.05;100.00
3096;BME280;1558;42.700;23.360;2023-03-01T00:06:43;95827.03;;;6.00;100.00
3096;BME280;1558;42.700;23.360;2023-03-01T00:09:12;95823.56;;;6.00;100.00
3096;BME280;1558;42.700;23.360;2023-03-01T00:11:40;95825.44;;;5.99;100.00
3096;BME280;1558;42.700;23.360;2023-03-01T00:14:09;95826.03;;;5.96;100.00
3096;BME280;1558;42.700;23.360;2023-03-01T00:16:39;95828.47;;;5.93;100.00
3096;BME280;1558;42.700;23.360;2023-03-01T00:19:08;95825.28;;;5.91;100.00
3096;BME280;1558;42.700;23.360;2023-03-01T00:21:39;95823.47;;;5.86;100.00
3096;BME280;1558;42.700;23.360;2023-03-01T00:24:07;95821.06;;;5.85;100.00
3096;BME280;1558;42.700;23.360;2023-03-01T00:26:37;95816.53;;;5.85;100.00
3096;BME280;1558;42.700;23.360;2023-03-01T00:29:06;95816.00;;;5.83;100.00
3096;BME280;1558;42.700;23.360;2023-03-01T00:31:34;95791.81;;;5.70;100.00
3096;BME280;1558;42.700;23.360;2023-03-01T00:34:04;95807.44;;;5.81;100.00
3096;BME280;1558;42.700;23.360;2023-03-01T00:36:35;95771.00;;;5.67;100.00
3096;BME280;1558;42.700;23.360;2023-03-01T00:39:09;95753.84;;;5.49;100.00
3096;BME280;1558;42.700;23.360;2023-03-01T00:41:38;95796.31;;;5.74;100.00
3096;BME280;1558;42.700;23.360;2023-03-01T00:44:06;95766.13;;;5.50;100.00
3096;BME280;1558;42.700;23.360;2023-03-01T00:46:34;95792.41;;;5.67;100.00
3096;BME280;1558;42.700;23.360;2023-03-01T00:49:02;95798.03;;;5.65;100.00
3096;BME280;1558;42.700;23.360;2023-03-01T00:51:31;95772.78;;;5.53;100.00
3096;BME280;1558;42.700;23.360;2023-03-01T00:54:00;95796.94;;;5.66;100.00
3096;BME280;1558;42.700;23.360;2023-03-01T00:56:30;95796.44;;;5.64;100.00
3096;BME280;1558;42.700;23.360;2023-03-01T00:58:59;95788.41;;;5.64;100.00
3096;BME280;1558;42.700;23.360;2023-03-01T01:01:29;95779.88;;;5.62;100.00
3096;BME280;1558;42.700;23.360;2023-03-01T01:03:59;95787.41;;;5.60;100.00
3096;BME280;1558;42.700;23.360;2023-03-01T01:06:29;95788.78;;;5.58;100.00
3096;BME280;1558;42.700;23.360;2023-03-01T01:08:58;95789.06;;;5.56;100.00
3096;BME280;1558;42.700;23.360;2023-03-01T01:11:28;95787.97;;;5.57;100.00
3096;BME280;1558;42.700;23.360;2023-03-01T01:13:58;95788.47;;;5.59;100.00
3096;BME280;1558;42.700;23.360;2023-03-01T01:16:28;95792.25;;;5.58;100.00
3096;BME280;1558;42.700;23.360;2023-03-01T01:18:56;95806.19;;;5.55;100.00
3096;BME280;1558;42.700;23.360;2023-03-01T01:21:25;95801.34;;;5.57;100.00
3096;BME280;1558;42.700;23.360;2023-03-01T01:23:53;95727.03;;;5.12;100.00
3096;BME280;1558;42.700;23.360;2023-03-01T01:26:23;95760.34;;;5.43;100.00
3096;BME280;1558;42.700;23.360;2023-03-01T01:28:53;95791.16;;;5.59;100.00
3096;BME280;1558;42.700;23.360;2023-03-01T01:31:23;95782.31;;;5.59;100.00
3096;BME280;1558;42.700;23.360;2023-03-01T01:33:53;95793.75;;;5.64;100.00
3096;BME280;1558;42.700;23.360;2023-03-01T01:36:22;95786.03;;;5.63;100.00
3096;BME280;1558;42.700;23.360;2023-03-01T01:38:50;95796.16;;;5.66;100.00
3096;BME280;1558;42.700;23.360;2023-03-01T01:41:18;95806.06;;;5.65;100.00
3096;BME280;1558;42.700;23.360;2023-03-01T01:43:48;95798.03;;;5.65;100.00
3096;BME280;1558;42.700;23.360;2023-03-01T01:46:24;95802.28;;;5.66;100.00
3096;BME280;1558;42.700;23.360;2023-03-01T01:48:58;95803.91;;;5.67;100.00
3096;BME280;1558;42.700;23.360;2023-03-01T01:51:31;95766.69;;;5.47;100.00
3096;BME280;1558;42.700;23.360;2023-03-01T01:54:08;95788.53;;;5.54;100.00
3096;BME280;1558;42.700;23.360;2023-03-01T01:56:38;95795.56;;;5.69;100.00
3096;BME280;1558;42.700;23.360;2023-03-01T01:59:08;95791.53;;;5.71;100.00
3096;BME280;1558;42.700;23.360;2023-03-01T02:01:38;95787.53;;;5.69;100.00
3096;BME280;1558;42.700;23.360;2023-03-01T02:04:06;95785.66;;;5.69;100.00
3096;BME280;1558;42.700;23.360;2023-03-01T02:06:38;95787.28;;;5.70;100.00
3096;BME280;1558;42.700;23.360;2023-03-01T02:09:12;95743.94;;;5.49;100.00
3096;BME280;1558;42.700;23.360;2023-03-01T02:11:41;95778.00;;;5.81;100.00
3096;BME280;1558;42.700;23.360;2023-03-01T02:14:10;95779.06;;;5.85;100.00
3096;BME280;1558;42.700;23.360;2023-03-01T02:16:40;95768.28;;;5.90;100.00
3096;BME280;1558;42.700;23.360;2023-03-01T02:19:12;95774.72;;;5.89;100.00
3096;BME280;1558;42.700;23.360;2023-03-01T02:21:51;95769.44;;;5.84;100.00
3096;BME280;1558;42.700;23.360;2023-03-01T02:24:29;95779.84;;;5.86;100.00
3096;BME280;1558;42.700;23.360;2023-03-01T02:27:00;95772.16;;;5.79;100.00
3096;BME280;1558;42.700;23.360;2023-03-01T02:29:29;95762.16;;;5.66;100.00
3096;BME280;1558;42.700;23.360;2023-03-01T02:32:00;95775.69;;;5.75;100.00
3096;BME280;1558;42.700;23.360;2023-03-01T02:34:31;95781.94;;;5.70;100.00
3096;BME280;1558;42.700;23.360;2023-03-01T02:37:02;95765.06;;;5.51;100.00
3096;BME280;1558;42.700;23.360;2023-03-01T02:39:33;95713.59;;;5.17;100.00
3096;BME280;1558;42.700;23.360;2023-03-01T02:42:04;95733.28;;;5.26;100.00
3096;BME280;1558;42.700;23.360;2023-03-01T02:44:34;95789.28;;;5.60;100.00
3096;BME280;1558;42.700;23.360;2023-03-01T02:47:03;95783.72;;;5.56;100.00
3096;BME280;1558;42.700;23.360;2023-03-01T02:49:34;95777.84;;;5.54;100.00
3096;BME280;1558;42.700;23.360;2023-03-01T02:52:24;95777.34;;;5.52;100.00
3096;BME280;1558;42.700;23.360;2023-03-01T02:54:59;95778.44;;;5.51;100.00
3096;BME280;1558;42.700;23.360;2023-03-01T02:57:30;95772.28;;;5.51;100.00
3096;BME280;1558;42.700;23.360;2023-03-01T03:00:04;95780.13;;;5.42;100.00
3096;BME280;1558;42.700;23.360;2023-03-01T03:02:35;95773.66;;;5.48;100.00
3096;BME280;1558;42.700;23.360;2023-03-01T03:05:08;95779.50;;;5.50;100.00
3096;BME280;1558;42.700;23.360;2023-03-01T03:07:39;95777.06;;;5.54;100.00
3096;BME280;1558;42.700;23.360;2023-03-01T03:10:09;95780.00;;;5.52;100.00
3096;BME280;1558;42.700;23.360;2023-03-01T03:12:38;95769.31;;;5.52;100.00
3096;BME280;1558;42.700;23.360;2023-03-01T03:15:10;95770.09;;;5.53;100.00
3096;BME280;1558;42.700;23.360;2023-03-01T03:17:41;95758.81;;;5.37;100.00
3096;BME280;1558;42.700;23.360;2023-03-01T03:20:13;95781.09;;;5.51;100.00
3096;BME280;1558;42.700;23.360;2023-03-01T03:22:46;95785.41;;;5.47;100.00
3096;BME280;1558;42.700;23.360;2023-03-01T03:25:15;95784.09;;;5.44;100.00
3096;BME280;1558;42.700;23.360;2023-03-01T03:27:44;95731.56;;;5.11;100.00
3096;BME280;1558;42.700;23.360;2023-03-01T03:30:17;95786.22;;;5.47;100.00
3096;BME280;1558;42.700;23.360;2023-03-01T03:32:46;95796.72;;;5.44;100.00
3096;BME280;1558;42.700;23.360;2023-03-01T03:35:19;95769.63;;;5.27;100.00
3096;BME280;1558;42.700;23.360;2023-03-01T03:37:48;95799.16;;;5.40;100.00
3096;BME280;1558;42.700;23.360;2023-03-01T03:40:34;95740.19;;;5.08;100.00
3096;BME280;1558;42.700;23.360;2023-03-01T03:43:04;95716.09;;;4.90;100.00
3096;BME280;1558;42.700;23.360;2023-03-01T03:45:52;95797.22;;;5.46;100.00
3096;BME280;1558;42.700;23.360;2023-03-01T03:48:20;95786.44;;;5.32;100.00
3096;BME280;1558;42.700;23.360;2023-03-01T03:50:50;95735.69;;;5.04;100.00
3096;BME280;1558;42.700;23.360;2023-03-01T03:53:19;95765.94;;;5.23;100.00
3096;BME280;1558;42.700;23.360;2023-03-01T03:55:47;95798.63;;;5.38;100.00
3096;BME280;1558;42.700;23.360;2023-03-01T03:58:36;95811.00;;;5.34;100.00
3096;BME280;1558;42.700;23.360;2023-03-01T04:01:06;95809.63;;;5.37;100.00
3096;BME280;1558;42.700;23.360;2023-03-01T04:03:34;95803.03;;;5.29;100.00
3096;BME280;1558;42.700;23.360;2023-03-01T04:06:03;95805.41;;;5.31;100.00
3096;BME280;1558;42.700;23.360;2023-03-01T04:08:32;95814.28;;;5.26;100.00
3096;BME280;1558;42.700;23.360;2023-03-01T04:11:02;95810.81;;;5.26;100.00
3096;BME280;1558;42.700;23.360;2023-03-01T04:13:52;95768.38;;;4.96;100.00
3096;BME280;1558;42.700;23.360;2023-03-01T04:16:22;95813.22;;;5.27;100.00
3096;BME280;1558;42.700;23.360;2023-03-01T04:18:50;95796.19;;;5.18;100.00
3096;BME280;1558;42.700;23.360;2023-03-01T04:21:19;95810.75;;;5.31;100.00
3096;BME280;1558;42.700;23.360;2023-03-01T04:23:47;95808.09;;;5.31;100.00
3096;BME280;1558;42.700;23.360;2023-03-01T04:26:15;95783.41;;;5.15;100.00
3096;BME280;1558;42.700;23.360;2023-03-01T04:28:43;95810.31;;;5.24;100.00
3096;BME280;1558;42.700;23.360;2023-03-01T04:31:14;95798.81;;;5.23;100.00
3096;BME280;1558;42.700;23.360;2023-03-01T04:33:47;95806.56;;;5.25;100.00
3096;BME280;1558;42.700;23.360;2023-03-01T04:36:19;95720.03;;;4.68;100.00
3096;BME280;1558;42.700;23.360;2023-03-01T04:38:48;95809.00;;;5.21;100.00
3096;BME280;1558;42.700;23.360;2023-03-01T04:41:17;95806.88;;;5.18;100.00
3096;BME280;1558;42.700;23.360;2023-03-01T04:43:45;95794.81;;;5.21;100.00
3096;BME280;1558;42.700;23.360;2023-03-01T04:46:14;95787.41;;;5.18;100.00
3096;BME280;1558;42.700;23.360;2023-03-01T04:48:45;95796.50;;;5.17;100.00
3096;BME280;1558;42.700;23.360;2023-03-01T04:51:14;95797.59;;;5.16;100.00
3096;BME280;1558;42.700;23.360;2023-03-01T04:53:43;95792.78;;;5.13;100.00
3096;BME280;1558;42.700;23.360;2023-03-01T04:56:12;95797.34;;;5.12;100.00
3096;BME280;1558;42.700;23.360;2023-03-01T04:58:41;95793.88;;;5.12;100.00
3096;BME280;1558;42.700;23.360;2023-03-01T05:01:10;95788.53;;;5.12;100.00
3096;BME280;1558;42.700;23.360;2023-03-01T05:03:42;95790.97;;;5.08;100.00
3096;BME280;1558;42.700;23.360;2023-03-01T05:06:12;95769.13;;;5.01;100.00
3096;BME280;1558;42.700;23.360;2023-03-01T05:08:41;95792.25;;;5.16;100.00
3096;BME280;1558;42.700;23.360;2023-03-01T05:11:10;95809.91;;;5.12;100.00
3096;BME280;1558;42.700;23.360;2023-03-01T05:13:39;95809.84;;;5.17;100.00
3096;BME280;1558;42.700;23.360;2023-03-01T05:16:08;95799.44;;;5.15;100.00
3096;BME280;1558;42.700;23.360;2023-03-01T05:18:38;95798.66;;;5.15;100.00
3096;BME280;1558;42.700;23.360;2023-03-01T05:21:08;95797.34;;;5.12;100.00
3096;BME280;1558;42.700;23.360;2023-03-01T05:23:38;95794.38;;;5.14;100.00
3096;BME280;1558;42.700;23.360;2023-03-01T05:26:06;95803.50;;;5.13;100.00
3096;BME280;1558;42.700;23.360;2023-03-01T05:28:48;95801.88;;;5.12;100.00
3096;BME280;1558;42.700;23.360;2023-03-01T05:31:16;95798.94;;;5.13;100.00
3096;BME280;1558;42.700;23.360;2023-03-01T05:33:44;95805.06;;;5.14;100.00
3096;BME280;1558;42.700;23.360;2023-03-01T05:36:12;95811.00;;;5.11;100.00
3096;BME280;1558;42.700;23.360;2023-03-01T05:38:42;95802.19;;;5.10;100.00
3096;BME280;1558;42.700;23.360;2023-03-01T05:41:15;95805.06;;;5.14;100.00
3096;BME280;1558;42.700;23.360;2023-03-01T05:43:57;95460.84;;;2.94;100.00
3096;BME280;1558;42.700;23.360;2023-03-01T05:46:25;95703.28;;;4.39;100.00
3096;BME280;1558;42.700;23.360;2023-03-01T05:48:53;95814.19;;;5.13;100.00
3096;BME280;1558;42.700;23.360;2023-03-01T05:51:24;95811.25;;;5.09;100.00
3096;BME280;1558;42.700;23.360;2023-03-01T05:53:58;95804.91;;;5.05;100.00
3096;BME280;1558;42.700;23.360;2023-03-01T05:56:27;95806.78;;;5.05;100.00
3096;BME280;1558;42.700;23.360;2023-03-01T05:58:56;95825.91;;;5.17;100.00
3096;BME280;1558;42.700;23.360;2023-03-01T06:01:24;95825.91;;;5.17;100.00
3096;BME280;1558;42.700;23.360;2023-03-01T06:03:52;95817.97;;;5.07;100.00
3096;BME280;1558;42.700;23.360;2023-03-01T06:06:20;95824.81;;;5.18;100.00
3096;BME280;1558;42.700;23.360;2023-03-01T06:08:48;95820.66;;;5.07;100.00
3096;BME280;1558;42.700;23.360;2023-03-01T06:11:17;95836.13;;;5.10;100.00
3096;BME280;1558;42.700;23.360;2023-03-01T06:13:45;95821.94;;;4.86;100.00
3096;BME280;1558;42.700;23.360;2023-03-01T06:16:14;95817.16;;;4.82;100.00
3096;BME280;1558;42.700;23.360;2023-03-01T06:18:42;95841.56;;;5.00;100.00
3096;BME280;1558;42.700;23.360;2023-03-01T06:21:10;95835.22;;;4.96;100.00
3096;BME280;1558;42.700;23.360;2023-03-01T06:23:38;95836.22;;;5.00;100.00
3096;BME280;1558;42.700;23.360;2023-03-01T06:26:07;95780.25;;;4.61;100.00
3096;BME280;1558;42.700;23.360;2023-03-01T06:28:36;95847.84;;;5.14;100.00
3096;BME280;1558;42.700;23.360;2023-03-01T06:31:04;95847.78;;;5.19;100.00
3096;BME280;1558;42.700;23.360;2023-03-01T06:33:35;95852.63;;;5.17;100.00
3096;BME280;1558;42.700;23.360;2023-03-01T06:36:04;95840.56;;;5.19;100.00
3096;BME280;1558;42.700;23.360;2023-03-01T06:38:34;95813.22;;;5.04;100.00
3096;BME280;1558;42.700;23.360;2023-03-01T06:41:03;95848.31;;;5.21;100.00
3096;BME280;1558;42.700;23.360;2023-03-01T06:43:30;95837.91;;;5.19;100.00
3096;BME280;1558;42.700;23.360;2023-03-01T06:46:00;95847.75;;;5.24;100.00
3096;BME280;1558;42.700;23.360;2023-03-01T06:48:31;95842.84;;;5.31;100.00
3096;BME280;1558;42.700;23.360;2023-03-01T06:50:59;95832.22;;;5.26;100.00
3096;BME280;1558;42.700;23.360;2023-03-01T06:53:28;95844.72;;;5.30;100.00
3096;BME280;1558;42.700;23.360;2023-03-01T06:55:56;95846.84;;;5.33;100.00
3096;BME280;1558;42.700;23.360;2023-03-01T06:58:26;95844.47;;;5.32;100.00
3096;BME280;1558;42.700;23.360;2023-03-01T07:00:55;95814.91;;;5.18;100.00
3096;BME280;1558;42.700;23.360;2023-03-01T07:03:25;95795.47;;;5.13;100.00
3096;BME280;1558;42.700;23.360;2023-03-01T07:05:53;95855.59;;;5.39;100.00
3096;BME280;1558;42.700;23.360;2023-03-01T07:08:21;95829.78;;;5.29;100.00
3096;BME280;1558;42.700;23.360;2023-03-01T07:10:54;95847.59;;;5.39;100.00
3096;BME280;1558;42.700;23.360;2023-03-01T07:13:22;95833.97;;;5.35;100.00
3096;BME280;1558;42.700;23.360;2023-03-01T07:15:50;95827.25;;;5.38;100.00
3096;BME280;1558;42.700;23.360;2023-03-01T07:18:19;95807.75;;;5.14;100.00
3096;BME280;1558;42.700;23.360;2023-03-01T07:20:48;95842.19;;;5.44;100.00
3096;BME280;1558;42.700;23.360;2023-03-01T07:23:16;95845.88;;;5.48;100.00
3096;BME280;1558;42.700;23.360;2023-03-01T07:25:44;95825.09;;;5.40;100.00
3096;BME280;1558;42.700;23.360;2023-03-01T07:28:12;95848.75;;;5.52;100.00
3096;BME280;1558;42.700;23.360;2023-03-01T07:30:39;95840.47;;;5.53;100.00
3096;BME280;1558;42.700;23.360;2023-03-01T07:33:07;95837.69;;;5.63;100.00
3096;BME280;1558;42.700;23.360;2023-03-01T07:35:37;95832.16;;;5.73;100.00
3096;BME280;1558;42.700;23.360;2023-03-01T07:38:06;95834.19;;;5.86;100.00
3096;BME280;1558;42.700;23.360;2023-03-01T07:40:34;95836.72;;;5.96;100.00
3096;BME280;1558;42.700;23.360;2023-03-01T07:43:02;95829.13;;;6.03;100.00
3096;BME280;1558;42.700;23.360;2023-03-01T07:45:30;95840.41;;;6.00;100.00
3096;BME280;1558;42.700;23.360;2023-03-01T07:47:58;95787.84;;;5.67;100.00
3096;BME280;1558;42.700;23.360;2023-03-01T07:50:26;95823.25;;;6.01;100.00
3096;BME280;1558;42.700;23.360;2023-03-01T07:52:54;95823.84;;;6.17;100.00
3096;BME280;1558;42.700;23.360;2023-03-01T07:55:24;95833.19;;;6.01;100.00
3096;BME280;1558;42.700;23.360;2023-03-01T07:57:52;95822.81;;;5.94;100.00
3096;BME280;1558;42.700;23.360;2023-03-01T08:00:20;95788.63;;;5.91;100.00
3096;BME280;1558;42.700;23.360;2023-03-01T08:02:48;95802.41;;;6.17;100.00
3096;BME280;1558;42.700;23.360;2023-03-01T08:05:16;95819.53;;;6.35;100.00
3096;BME280;1558;42.700;23.360;2023-03-01T08:07:44;95804.56;;;6.34;100.00
3096;BME280;1558;42.700;23.360;2023-03-01T08:10:12;95798.84;;;6.40;100.00
3096;BME280;1558;42.700;23.360;2023-03-01T08:12:41;95806.19;;;6.67;100.00
3096;BME280;1558;42.700;23.360;2023-03-01T08:15:10;95812.25;;;6.72;100.00
3096;BME280;1558;42.700;23.360;2023-03-01T08:17:40;95796.19;;;6.54;100.00
3096;BME280;1558;42.700;23.360;2023-03-01T08:20:09;95799.28;;;6.29;100.00
3096;BME280;1558;42.700;23.360;2023-03-01T08:22:39;95822.78;;;6.50;100.00
3096;BME280;1558;42.700;23.360;2023-03-01T08:25:08;95779.81;;;6.42;100.00
3096;BME280;1558;42.700;23.360;2023-03-01T08:27:42;95788.47;;;6.52;100.00
3096;BME280;1558;42.700;23.360;2023-03-01T08:30:11;95796.38;;;6.76;100.00
3096;BME280;1558;42.700;23.360;2023-03-01T08:32:40;95757.94;;;6.67;100.00
3096;BME280;1558;42.700;23.360;2023-03-01T08:35:08;95783.13;;;6.66;100.00
3096;BME280;1558;42.700;23.360;2023-03-01T08:37:37;95768.38;;;6.36;100.00
3096;BME280;1558;42.700;23.360;2023-03-01T08:40:08;95805.59;;;6.70;100.00
3096;BME280;1558;42.700;23.360;2023-03-01T08:42:37;95803.25;;;6.82;100.00
3096;BME280;1558;42.700;23.360;2023-03-01T08:45:10;95802.28;;;7.05;100.00
3096;BME280;1558;42.700;23.360;2023-03-01T08:47:45;95812.84;;;7.15;100.00
3096;BME280;1558;42.700;23.360;2023-03-01T08:50:17;95794.50;;;7.04;100.00
3096;BME280;1558;42.700;23.360;2023-03-01T08:52:45;95802.28;;;7.19;100.00
3096;BME280;1558;42.700;23.360;2023-03-01T08:55:16;95817.59;;;7.18;100.00
3096;BME280;1558;42.700;23.360;2023-03-01T08:57:44;95794.03;;;7.02;100.00
3096;BME280;1558;42.700;23.360;2023-03-01T09:00:18;95809.03;;;7.03;100.00
3096;BME280;1558;42.700;23.360;2023-03-01T09:02:52;95808.81;;;6.99;100.00
3096;BME280;1558;42.700;23.360;2023-03-01T09:05:21;95815.38;;;6.93;100.00
3096;BME280;1558;42.700;23.360;2023-03-01T09:07:49;95815.00;;;7.13;100.00
3096;BME280;1558;42.700;23.360;2023-03-01T09:10:17;95797.72;;;7.06;100.00
3096;BME280;1558;42.700;23.360;2023-03-01T09:12:48;95801.88;;;7.12;100.00
3096;BME280;1558;42.700;23.360;2023-03-01T09:15:18;95769.78;;;6.93;100.00
3096;BME280;1558;42.700;23.360;2023-03-01T09:17:46;95800.72;;;7.31;100.00
3096;BME280;1558;42.700;23.360;2023-03-01T09:20:15;95802.91;;;7.29;100.00
3096;BME280;1558;42.700;23.360;2023-03-01T09:22:45;95793.13;;;7.06;100.00
3096;BME280;1558;42.700;23.360;2023-03-01T09:25:13;95809.44;;;7.23;100.00
3096;BME280;1558;42.700;23.360;2023-03-01T09:27:41;95799.19;;;7.25;100.00
3096;BME280;1558;42.700;23.360;2023-03-01T09:30:10;95755.00;;;7.09;100.00
3096;BME280;1558;42.700;23.360;2023-03-01T09:32:45;95803.97;;;7.42;100.00
3096;BME280;1558;42.700;23.360;2023-03-01T09:35:13;95804.47;;;7.30;100.00
3096;BME280;1558;42.700;23.360;2023-03-01T09:37:41;95758.66;;;6.86;100.00
3096;BME280;1558;42.700;23.360;2023-03-01T09:40:14;95794.50;;;6.90;100.00
3096;BME280;1558;42.700;23.360;2023-03-01T09:42:51;95785.22;;;7.01;100.00
3096;BME280;1558;42.700;23.360;2023-03-01T09:45:26;95784.31;;;7.19;100.00
3096;BME280;1558;42.700;23.360;2023-03-01T09:47:57;95742.28;;;6.88;100.00
3096;BME280;1558;42.700;23.360;2023-03-01T09:50:32;95737.91;;;6.92;100.00
3096;BME280;1558;42.700;23.360;2023-03-01T09:53:06;95791.47;;;7.10;100.00
3096;BME280;1558;42.700;23.360;2023-03-01T09:55:39;95736.09;;;6.87;100.00
3096;BME280;1558;42.700;23.360;2023-03-01T09:58:28;95776.84;;;7.30;100.00
3096;BME280;1558;42.700;23.360;2023-03-01T10:00:59;95713.28;;;7.03;100.00
3096;BME280;1558;42.700;23.360;2023-03-01T10:03:36;95781.44;;;7.43;100.00
3096;BME280;1558;42.700;23.360;2023-03-01T10:06:12;95760.03;;;7.51;100.00
3096;BME280;1558;42.700;23.360;2023-03-01T10:09:02;95770.66;;;7.70;100.00
3096;BME280;1558;42.700;23.360;2023-03-01T10:11:35;95768.75;;;7.71;100.00
3096;BME280;1558;42.700;23.360;2023-03-01T10:14:15;95739.97;;;7.63;100.00
3096;BME280;1558;42.700;23.360;2023-03-01T10:16:52;95762.47;;;7.75;100.00
3096;BME280;1558;42.700;23.360;2023-03-01T10:19:30;95775.41;;;7.73;100.00
3096;BME280;1558;42.700;23.360;2023-03-01T10:22:11;95653.09;;;6.96;100.00
3096;BME280;1558;42.700;23.360;2023-03-01T10:24:42;95772.69;;;7.37;100.00
3096;BME280;1558;42.700;23.360;2023-03-01T10:27:17;95758.47;;;7.23;100.00
3096;BME280;1558;42.700;23.360;2023-03-01T10:29:59;95744.88;;;7.33;100.00
3096;BME280;1558;42.700;23.360;2023-03-01T10:32:29;95741.38;;;7.33;100.00
3096;BME280;1558;42.700;23.360;2023-03-01T10:35:00;95742.88;;;7.39;100.00
3096;BME280;1558;42.700;23.360;2023-03-01T10:37:28;95750.41;;;7.37;100.00
3096;BME280;1558;42.700;23.360;2023-03-01T10:39:58;95745.66;;;7.34;100.00
3096;BME280;1558;42.700;23.360;2023-03-01T10:42:29;95740.88;;;7.44;100.00
3096;BME280;1558;42.700;23.360;2023-03-01T10:44:57;95732.13;;;7.53;100.00
3096;BME280;1558;42.700;23.360;2023-03-01T10:47:27;95735.88;;;7.51;100.00
3096;BME280;1558;42.700;23.360;2023-03-01T10:50:01;95725.69;;;7.76;100.00
3096;BME280;1558;42.700;23.360;2023-03-01T10:52:32;95723.84;;;7.98;100.00
3096;BME280;1558;42.700;23.360;2023-03-01T10:55:04;95690.94;;;7.57;100.00
3096;BME280;1558;42.700;23.360;2023-03-01T10:57:49;95733.31;;;7.96;100.00
3096;BME280;1558;42.700;23.360;2023-03-01T11:00:24;95719.69;;;8.14;100.00
3096;BME280;1558;42.700;23.360;2023-03-01T11:03:09;95732.69;;;8.21;100.00
3096;BME280;1558;42.700;23.360;2023-03-01T11:05:52;95730.66;;;8.40;100.00
3096;BME280;1558;42.700;23.360;2023-03-01T11:11:25;95728.47;;;8.06;100.00
3096;BME280;1558;42.700;23.360;2023-03-01T11:13:59;95737.28;;;8.20;100.00
3096;BME280;1558;42.700;23.360;2023-03-01T11:16:43;95757.59;;;8.13;100.00
3096;BME280;1558;42.700;23.360;2023-03-01T11:19:18;95740.72;;;7.99;100.00
3096;BME280;1558;42.700;23.360;2023-03-01T11:21:59;95735.03;;;7.78;100.00
3096;BME280;1558;42.700;23.360;2023-03-01T11:24:34;95733.63;;;7.81;100.00
3096;BME280;1558;42.700;23.360;2023-03-01T11:27:15;95717.00;;;7.57;100.00
3096;BME280;1558;42.700;23.360;2023-03-01T11:29:45;95727.69;;;7.84;100.00
3096;BME280;1558;42.700;23.360;2023-03-01T11:32:21;95716.13;;;7.83;100.00
3096;BME280;1558;42.700;23.360;2023-03-01T11:34:57;95717.94;;;7.74;100.00
3096;BME280;1558;42.700;23.360;2023-03-01T11:37:35;95690.16;;;7.57;100.00
3096;BME280;1558;42.700;23.360;2023-03-01T11:40:12;95689.72;;;7.63;100.00
3096;BME280;1558;42.700;23.360;2023-03-01T11:42:51;95600.19;;;7.23;100.00
3096;BME280;1558;42.700;23.360;2023-03-01T11:45:25;95722.28;;;8.19;100.00
3096;BME280;1558;42.700;23.360;2023-03-01T11:48:23;95697.78;;;8.43;100.00
3096;BME280;1558;42.700;23.360;2023-03-01T11:51:20;95692.53;;;8.38;100.00
3096;BME280;1558;42.700;23.360;2023-03-01T11:54:04;95673.38;;;8.31;100.00
3096;BME280;1558;42.700;23.360;2023-03-01T11:56:38;95680.97;;;8.15;100.00
3096;BME280;1558;42.700;23.360;2023-03-01T11:59:32;95671.22;;;8.19;100.00
3096;BME280;1558;42.700;23.360;2023-03-01T12:02:27;95678.91;;;8.35;100.00
3096;BME280;1558;42.700;23.360;2023-03-01T12:05:16;95669.25;;;8.11;100.00
3096;BME280;1558;42.700;23.360;2023-03-01T12:07:53;95695.97;;;8.08;100.00
3096;BME280;1558;42.700;23.360;2023-03-01T12:10:27;95693.75;;;8.10;100.00
3096;BME280;1558;42.700;23.360;2023-03-01T12:13:17;95698.63;;;8.08;100.00
3096;BME280;1558;42.700;23.360;2023-03-01T12:19:14;95682.09;;;8.14;100.00
3096;BME280;1558;42.700;23.360;2023-03-01T12:22:04;95675.66;;;8.24;100.00
3096;BME280;1558;42.700;23.360;2023-03-01T12:24:56;95603.16;;;8.02;100.00
3096;BME280;1558;42.700;23.360;2023-03-01T12:27:45;95625.97;;;8.13;100.00
3096;BME280;1558;42.700;23.360;2023-03-01T12:30:26;95663.81;;;8.25;100.00
3096;BME280;1558;42.700;23.360;2023-03-01T12:33:13;95672.63;;;8.17;100.00
3096;BME280;1558;42.700;23.360;2023-03-01T12:36:10;95673.84;;;7.89;100.00
3096;BME280;1558;42.700;23.360;2023-03-01T12:38:41;95669.09;;;7.86;100.00
3096;BME280;1558;42.700;23.360;2023-03-01T12:41:36;95670.53;;;7.92;100.00
3096;BME280;1558;42.700;23.360;2023-03-01T12:44:39;95678.59;;;7.92;100.00
3096;BME280;1558;42.700;23.360;2023-03-01T12:47:36;95657.91;;;8.14;100.00
3096;BME280;1558;42.700;23.360;2023-03-01T12:50:17;95656.03;;;8.15;100.00
3096;BME280;1558;42.700;23.360;2023-03-01T12:52:50;95672.19;;;8.01;100.00
3096;BME280;1558;42.700;23.360;2023-03-01T12:55:29;95657.84;;;7.84;100.00
3096;BME280;1558;42.700;23.360;2023-03-01T12:58:05;95655.66;;;8.08;100.00
3096;BME280;1558;42.700;23.360;2023-03-01T13:00:41;95653.94;;;8.12;100.00
3096;BME280;1558;42.700;23.360;2023-03-01T13:03:19;95657.34;;;8.04;100.00
3096;BME280;1558;42.700;23.360;2023-03-01T13:06:04;95628.00;;;7.85;100.00
3096;BME280;1558;42.700;23.360;2023-03-01T13:08:39;95659.69;;;7.97;100.00
3096;BME280;1558;42.700;23.360;2023-03-01T13:11:16;95662.84;;;7.77;100.00
3096;BME280;1558;42.700;23.360;2023-03-01T13:13:45;95657.13;;;7.70;100.00
3096;BME280;1558;42.700;23.360;2023-03-01T13:16:39;95608.88;;;7.42;100.00
3096;BME280;1558;42.700;23.360;2023-03-01T13:19:13;95658.75;;;8.01;100.00
3096;BME280;1558;42.700;23.360;2023-03-01T13:21:43;95633.22;;;7.82;100.00
3096;BME280;1558;42.700;23.360;2023-03-01T13:24:25;95667.84;;;8.14;100.00
3096;BME280;1558;42.700;23.360;2023-03-01T13:27:22;95647.66;;;7.94;100.00
3096;BME280;1558;42.700;23.360;2023-03-01T13:29:57;95631.38;;;7.91;100.00
3096;BME280;1558;42.700;23.360;2023-03-01T13:32:30;95672.97;;;8.02;100.00
3096;BME280;1558;42.700;23.360;2023-03-01T13:35:43;95668.59;;;7.84;100.00
3096;BME280;1558;42.700;23.360;2023-03-01T13:38:39;95621.22;;;7.43;100.00
3096;BME280;1558;42.700;23.360;2023-03-01T13:41:13;95670.47;;;7.83;100.00
3096;BME280;1558;42.700;23.360;2023-03-01T13:43:43;95658.53;;;7.67;100.00
3096;BME280;1558;42.700;23.360;2023-03-01T13:46:18;95667.91;;;7.78;100.00